createdAt,value
2019-01-27T00:00:25.162Z,7.13
2019-01-27T00:02:53.661Z,6.13
2019-01-27T00:05:22.099Z,10.30
2019-01-27T00:07:50.544Z,9.97
2019-01-27T00:10:19.039Z,10.67
2019-01-27T00:12:47.497Z,10.07
2019-01-27T00:15:16.024Z,7.73
2019-01-27T00:17:44.514Z,9.43
2019-01-27T00:20:16.134Z,8.57
2019-01-27T00:22:44.588Z,8.40
2019-01-27T00:25:13.159Z,8.63
2019-01-27T00:27:41.688Z,11.20
2019-01-27T00:30:22.290Z,9.13
2019-01-27T00:32:50.756Z,12.10
2019-01-27T00:35:19.482Z,8.83
2019-01-27T00:37:47.964Z,9.20
2019-01-27T00:40:17.661Z,12.67
2019-01-27T00:42:46.351Z,17.77
2019-01-27T00:45:19.551Z,11.07
2019-01-27T00:47:48.005Z,14.50
2019-01-27T00:50:18.203Z,19.20
2019-01-27T00:52:46.700Z,15.20
2019-01-27T00:55:20.349Z,17.03
2019-01-27T00:57:48.882Z,13.93
2019-01-27T01:00:28.972Z,13.53
2019-01-27T01:02:57.511Z,17.13
2019-01-27T01:05:26.195Z,11.23
2019-01-27T01:07:55.070Z,13.27
2019-01-27T01:10:24.174Z,11.83
2019-01-27T01:12:52.705Z,11.03
2019-01-27T01:15:21.451Z,13.03
2019-01-27T01:17:49.898Z,7.47
2019-01-27T01:20:22.616Z,8.93
2019-01-27T01:22:51.725Z,9.93
2019-01-27T01:25:22.326Z,11.53
2019-01-27T01:27:51.138Z,15.37
2019-01-27T01:30:22.149Z,18.73
2019-01-27T01:32:50.602Z,22.40
2019-01-27T01:35:19.130Z,12.10
2019-01-27T01:37:49.063Z,18.50
2019-01-27T01:40:18.758Z,18.83
2019-01-27T01:42:47.288Z,17.70
2019-01-27T01:45:30.139Z,20.67
2019-01-27T01:47:58.669Z,20.67
2019-01-27T01:50:27.218Z,23.40
2019-01-27T01:52:55.854Z,20.30
2019-01-27T01:55:24.394Z,19.20
2019-01-27T01:57:53.118Z,28.07
2019-01-27T02:00:23.872Z,28.47
2019-01-27T02:02:52.388Z,25.10
2019-01-27T02:05:21.207Z,20.20
2019-01-27T02:07:49.697Z,26.10
2019-01-27T02:10:20.567Z,31.67
2019-01-27T02:12:49.561Z,24.47
2019-01-27T02:15:24.192Z,42.03
2019-01-27T02:17:52.647Z,28.37
2019-01-27T02:20:21.111Z,31.57
2019-01-27T02:22:49.606Z,28.90
2019-01-27T02:25:18.065Z,34.43
2019-01-27T02:27:46.531Z,33.70
2019-01-27T02:30:16.262Z,33.30
2019-01-27T02:32:44.722Z,33.10
2019-01-27T02:35:13.187Z,32.47
2019-01-27T02:37:41.731Z,28.80
2019-01-27T02:40:12.373Z,43.67
2019-01-27T02:42:40.816Z,34.17
2019-01-27T02:45:15.202Z,32.30
2019-01-27T02:47:43.721Z,36.87
2019-01-27T02:50:12.627Z,34.90
2019-01-27T02:52:41.193Z,33.50
2019-01-27T02:55:10.125Z,33.40
2019-01-27T02:57:38.631Z,32.33
2019-01-27T03:00:21.647Z,39.13
2019-01-27T03:02:50.321Z,30.33
2019-01-27T03:05:29.528Z,33.20
2019-01-27T03:07:57.970Z,33.03
2019-01-27T03:10:26.426Z,32.07
2019-01-27T03:12:54.909Z,40.10
2019-01-27T03:15:23.442Z,29.43
2019-01-27T03:17:51.906Z,33.53
2019-01-27T03:20:20.394Z,32.97
2019-01-27T03:22:48.863Z,32.60
2019-01-27T03:25:18.477Z,31.03
2019-01-27T03:27:46.973Z,34.73
2019-01-27T03:30:24.792Z,33.90
2019-01-27T03:32:53.286Z,29.47
2019-01-27T03:35:21.740Z,32.13
2019-01-27T03:37:50.188Z,38.63
2019-01-27T03:40:19.901Z,30.77
2019-01-27T03:42:48.845Z,29.57
2019-01-27T03:45:20.016Z,36.73
2019-01-27T03:47:48.598Z,34.63
2019-01-27T03:50:21.231Z,27.40
2019-01-27T03:52:49.766Z,30.33
2019-01-27T03:55:20.801Z,28.27
2019-01-27T03:57:49.245Z,33.60
2019-01-27T04:00:21.940Z,32.80
2019-01-27T04:02:50.439Z,30.43
2019-01-27T04:05:18.964Z,24.93
2019-01-27T04:07:47.437Z,29.00
2019-01-27T04:10:18.834Z,28.53
2019-01-27T04:12:47.289Z,27.57
2019-01-27T04:15:15.884Z,28.73
2019-01-27T04:17:44.512Z,29.50
2019-01-27T04:20:15.115Z,26.77
2019-01-27T04:22:43.584Z,27.07
2019-01-27T04:25:12.400Z,29.50
2019-01-27T04:27:40.856Z,27.97
2019-01-27T04:30:18.991Z,25.77
2019-01-27T04:32:47.451Z,26.40
2019-01-27T04:35:15.978Z,24.53
2019-01-27T04:37:44.491Z,27.10
2019-01-27T04:40:18.295Z,23.43
2019-01-27T04:42:46.731Z,23.67
2019-01-27T04:45:17.846Z,26.23
2019-01-27T04:47:46.352Z,28.77
2019-01-27T04:50:15.175Z,25.73
2019-01-27T04:52:43.747Z,25.67
2019-01-27T04:55:15.006Z,20.93
2019-01-27T04:57:43.468Z,27.07
2019-01-27T05:00:15.438Z,25.83
2019-01-27T05:02:45.534Z,30.07
2019-01-27T05:05:14.124Z,24.43
2019-01-27T05:07:42.610Z,30.97
2019-01-27T05:10:13.119Z,26.30
2019-01-27T05:12:41.629Z,29.37
2019-01-27T05:15:17.520Z,24.43
2019-01-27T05:17:45.968Z,21.40
2019-01-27T05:20:14.486Z,24.07
2019-01-27T05:22:42.970Z,25.27
2019-01-27T05:25:13.766Z,23.70
2019-01-27T05:27:42.227Z,23.07
2019-01-27T05:30:16.868Z,23.33
2019-01-27T05:32:45.338Z,28.30
2019-01-27T05:35:13.868Z,20.87
2019-01-27T05:37:42.387Z,30.77
2019-01-27T05:40:13.377Z,22.10
2019-01-27T05:42:41.839Z,24.60
2019-01-27T05:45:17.268Z,21.00
2019-01-27T05:47:47.595Z,19.37
2019-01-27T05:50:17.255Z,22.53
2019-01-27T05:52:45.776Z,20.80
2019-01-27T05:55:16.149Z,17.27
2019-01-27T05:57:45.883Z,23.73
2019-01-27T06:00:21.312Z,20.80
2019-01-27T06:02:49.802Z,17.50
2019-01-27T06:05:18.264Z,22.40
2019-01-27T06:07:46.764Z,19.37
2019-01-27T06:10:15.251Z,20.03
2019-01-27T06:12:43.719Z,21.07
2019-01-27T06:15:19.343Z,19.17
2019-01-27T06:17:47.837Z,20.30
2019-01-27T06:20:17.235Z,23.33
2019-01-27T06:22:45.680Z,24.57
2019-01-27T06:25:19.198Z,23.30
2019-01-27T06:27:47.725Z,28.27
2019-01-27T06:30:25.056Z,21.00
2019-01-27T06:33:11.330Z,29.80
2019-01-27T06:35:40.389Z,23.67
2019-01-27T06:38:08.849Z,21.97
2019-01-27T06:40:37.308Z,18.97
2019-01-27T06:43:05.860Z,28.40
2019-01-27T06:45:34.312Z,21.83
2019-01-27T06:48:04.166Z,24.93
2019-01-27T06:50:33.833Z,18.37
2019-01-27T06:53:02.346Z,21.07
2019-01-27T06:55:30.814Z,21.40
2019-01-27T06:57:59.368Z,21.90
2019-01-27T07:00:35.102Z,21.37
2019-01-27T07:03:05.667Z,19.47
2019-01-27T07:05:38.419Z,19.57
2019-01-27T07:08:11.288Z,14.33
2019-01-27T07:10:41.374Z,16.20
2019-01-27T07:13:11.458Z,13.07
2019-01-27T07:15:41.588Z,15.30
2019-01-27T07:21:13.052Z,20.63
2019-01-27T07:23:59.194Z,14.90
2019-01-27T07:26:29.344Z,21.20
2019-01-27T07:29:10.988Z,15.10
2019-01-27T07:31:53.212Z,14.73
2019-01-27T07:34:29.253Z,17.27
2019-01-27T07:37:02.458Z,14.37
2019-01-27T07:39:41.738Z,14.20
2019-01-27T07:42:14.480Z,14.00
2019-01-27T07:44:44.588Z,15.60
2019-01-27T07:47:23.759Z,16.77
2019-01-27T07:49:56.344Z,14.93
2019-01-27T07:52:27.927Z,14.73
2019-01-27T07:54:58.218Z,14.47
2019-01-27T07:57:34.109Z,16.77
2019-01-27T08:00:04.232Z,15.93
2019-01-27T08:02:40.208Z,16.30
2019-01-27T08:05:30.425Z,16.57
2019-01-27T08:08:09.265Z,14.37
2019-01-27T08:10:39.402Z,22.70
2019-01-27T08:13:09.494Z,18.73
2019-01-27T08:15:42.313Z,14.87
2019-01-27T08:18:18.483Z,14.20
2019-01-27T08:20:54.400Z,18.37
2019-01-27T08:23:36.331Z,14.90
2019-01-27T08:26:12.883Z,24.93
2019-01-27T08:28:42.991Z,12.87
2019-01-27T08:31:15.776Z,12.23
2019-01-27T08:33:45.864Z,15.13
2019-01-27T08:36:25.131Z,9.87
2019-01-27T08:39:00.976Z,14.60
2019-01-27T08:41:31.113Z,11.37
2019-01-27T08:44:03.668Z,13.20
2019-01-27T08:46:36.822Z,10.97
2019-01-27T08:49:05.340Z,16.67
2019-01-27T08:51:33.807Z,14.93
2019-01-27T08:54:02.523Z,15.53
2019-01-27T08:56:31.065Z,15.33
2019-01-27T08:58:59.525Z,14.40
2019-01-27T09:01:29.629Z,11.27
2019-01-27T09:03:59.724Z,13.73
2019-01-27T09:06:35.596Z,14.40
2019-01-27T09:09:20.670Z,9.87
2019-01-27T09:11:53.256Z,11.30
2019-01-27T09:14:29.270Z,14.80
2019-01-27T09:17:02.482Z,15.50
2019-01-27T09:19:32.720Z,14.80
2019-01-27T09:22:17.876Z,15.73
2019-01-27T09:24:47.997Z,13.70
2019-01-27T09:27:18.383Z,14.47
2019-01-27T09:29:49.071Z,12.00
2019-01-27T09:32:35.573Z,11.30
2019-01-27T09:35:08.706Z,11.50
2019-01-27T09:37:44.837Z,20.23
2019-01-27T09:40:18.065Z,12.00
2019-01-27T09:42:57.721Z,15.50
2019-01-27T09:45:27.878Z,12.33
2019-01-27T09:48:03.887Z,9.57
2019-01-27T09:50:37.084Z,9.43
2019-01-27T09:53:10.129Z,9.00
2019-01-27T09:55:53.606Z,10.43
2019-01-27T09:58:32.546Z,7.93
2019-01-27T10:01:09.921Z,12.30
2019-01-27T10:03:40.180Z,9.60
2019-01-27T10:06:10.347Z,10.53
2019-01-27T10:08:49.476Z,13.33
2019-01-27T10:11:26.618Z,10.17
2019-01-27T10:14:08.993Z,10.00
2019-01-27T10:16:39.098Z,9.67
2019-01-27T10:19:15.031Z,9.17
2019-01-27T10:21:57.302Z,14.00
2019-01-27T10:24:33.483Z,9.60
2019-01-27T10:27:12.819Z,10.97
2019-01-27T10:30:00.813Z,10.83
2019-01-27T10:32:37.069Z,10.30
2019-01-27T10:35:14.654Z,17.50
2019-01-27T10:37:44.767Z,14.40
2019-01-27T10:40:14.930Z,12.63
2019-01-27T10:42:45.082Z,9.30
2019-01-27T10:45:15.243Z,9.17
2019-01-27T10:47:46.836Z,11.33
2019-01-27T10:50:23.319Z,14.63
2019-01-27T10:52:53.422Z,12.20
2019-01-27T10:55:29.508Z,8.03
2019-01-27T10:58:00.007Z,15.07
2019-01-27T11:00:32.662Z,9.33
2019-01-27T11:03:11.909Z,10.17
2019-01-27T11:05:54.307Z,12.70
2019-01-27T11:08:27.380Z,7.30
2019-01-27T11:11:00.535Z,8.17
2019-01-27T11:13:47.240Z,9.23
2019-01-27T11:16:26.213Z,7.27
2019-01-27T11:18:59.109Z,10.20
2019-01-27T11:21:35.438Z,6.77
2019-01-27T11:24:08.649Z,8.67
2019-01-27T11:26:41.289Z,7.50
2019-01-27T11:29:14.372Z,8.97
2019-01-27T11:31:44.456Z,8.20
2019-01-27T11:34:17.553Z,8.30
2019-01-27T11:36:47.692Z,13.40
2019-01-27T11:39:29.717Z,6.60
2019-01-27T11:42:02.531Z,8.50
2019-01-27T11:44:32.626Z,28.03
2019-01-27T11:47:11.284Z,11.00
2019-01-27T11:49:47.370Z,9.87
2019-01-27T11:52:15.818Z,9.30
2019-01-27T11:54:44.301Z,11.40
2019-01-27T11:57:12.762Z,10.97
2019-01-27T11:59:42.324Z,15.47
2019-01-27T12:02:10.833Z,7.70
2019-01-27T12:04:39.265Z,9.47
2019-01-27T12:07:07.717Z,7.40
2019-01-27T12:09:36.215Z,8.73
2019-01-27T12:12:04.729Z,7.70
2019-01-27T12:14:33.177Z,8.87
2019-01-27T12:17:01.650Z,7.03
2019-01-27T12:19:30.101Z,9.97
2019-01-27T12:21:58.560Z,7.07
2019-01-27T12:24:27.046Z,8.23
2019-01-27T12:26:55.507Z,6.67
2019-01-27T12:29:25.512Z,7.47
2019-01-27T12:31:54.113Z,9.30
2019-01-27T12:34:22.587Z,12.70
2019-01-27T12:36:51.024Z,9.87
2019-01-27T12:39:19.522Z,5.73
2019-01-27T12:41:47.965Z,4.30
2019-01-27T12:44:16.415Z,6.90
2019-01-27T12:46:44.925Z,5.73
2019-01-27T12:49:13.377Z,8.87
2019-01-27T12:51:41.842Z,8.87
2019-01-27T12:54:10.325Z,9.73
2019-01-27T12:56:38.794Z,9.40
2019-01-27T12:59:07.244Z,7.77
2019-01-27T13:01:36.208Z,10.23
2019-01-27T13:04:05.204Z,9.80
2019-01-27T13:06:33.643Z,5.70
2019-01-27T13:09:02.136Z,5.87
2019-01-27T13:11:30.613Z,5.07
2019-01-27T13:13:59.068Z,5.17
2019-01-27T13:16:27.539Z,6.90
2019-01-27T13:18:55.983Z,5.93
2019-01-27T13:21:24.455Z,5.43
2019-01-27T13:23:52.954Z,6.30
2019-01-27T13:26:21.413Z,10.70
2019-01-27T13:28:49.862Z,4.80
2019-01-27T13:31:18.726Z,9.03
2019-01-27T13:33:47.308Z,6.97
2019-01-27T13:36:15.764Z,10.73
2019-01-27T13:38:50.856Z,4.53
2019-01-27T13:41:14.418Z,10.77
2019-01-27T13:43:42.882Z,11.07
2019-01-27T13:46:11.384Z,41.57
2019-01-27T13:48:39.841Z,44.80
2019-01-27T13:51:08.383Z,28.10
2019-01-27T13:53:36.890Z,26.93
2019-01-27T13:56:05.480Z,6.27
2019-01-27T13:58:34.032Z,11.30
2019-01-27T14:01:02.498Z,13.70
2019-01-27T14:03:31.130Z,27.20
2019-01-27T14:05:59.659Z,10.37
2019-01-27T14:08:28.146Z,5.30
2019-01-27T14:10:56.597Z,3.83
2019-01-27T14:13:25.065Z,13.00
2019-01-27T14:15:53.544Z,5.20
2019-01-27T14:18:22.005Z,10.20
2019-01-27T14:20:50.452Z,16.67
2019-01-27T14:23:18.951Z,4.90
2019-01-27T14:25:47.390Z,8.87
2019-01-27T14:28:15.851Z,6.40
2019-01-27T14:30:45.530Z,14.53
2019-01-27T14:33:13.989Z,9.20
2019-01-27T14:35:42.446Z,3.43
2019-01-27T14:38:10.918Z,17.67
2019-01-27T14:40:41.841Z,4.67
2019-01-27T14:43:10.279Z,7.17
2019-01-27T14:45:38.761Z,3.63
2019-01-27T14:48:07.747Z,4.10
2019-01-27T14:50:39.271Z,4.70
2019-01-27T14:53:08.583Z,4.70
2019-01-27T14:55:37.040Z,3.43
2019-01-27T14:58:05.722Z,3.60
2019-01-27T15:00:36.874Z,2.73
2019-01-27T15:03:06.648Z,3.87
2019-01-27T15:05:35.530Z,6.23
2019-01-27T15:08:04.824Z,3.50
2019-01-27T15:10:33.238Z,4.70
2019-01-27T15:13:01.764Z,4.27
2019-01-27T15:15:30.262Z,4.20
2019-01-27T15:17:58.697Z,4.87
2019-01-27T15:20:36.306Z,4.60
2019-01-27T15:23:05.518Z,3.80
2019-01-27T15:25:33.969Z,4.60
2019-01-27T15:28:02.467Z,3.70
2019-01-27T15:30:33.143Z,4.37
2019-01-27T15:33:01.656Z,4.60
2019-01-27T15:35:30.166Z,3.60
2019-01-27T15:37:58.634Z,4.27
2019-01-27T15:40:27.157Z,6.43
2019-01-27T15:42:55.656Z,4.33
2019-01-27T15:45:26.926Z,5.00
2019-01-27T15:47:55.438Z,4.30
2019-01-27T15:50:29.887Z,7.07
2019-01-27T15:52:58.338Z,5.00
2019-01-27T15:55:26.971Z,4.80
2019-01-27T15:57:55.454Z,5.47
2019-01-27T16:00:27.076Z,6.07
2019-01-27T16:02:55.519Z,8.73
2019-01-27T16:05:24.439Z,4.60
2019-01-27T16:07:53.429Z,4.33
2019-01-27T16:10:23.724Z,5.20
2019-01-27T16:12:53.470Z,5.63
2019-01-27T16:15:30.110Z,4.20
2019-01-27T16:17:58.768Z,3.30
2019-01-27T16:20:27.605Z,4.30
2019-01-27T16:23:14.183Z,4.73
2019-01-27T16:25:42.695Z,7.30
2019-01-27T16:28:11.322Z,4.23
2019-01-27T16:30:44.897Z,6.20
2019-01-27T16:33:15.113Z,3.17
2019-01-27T16:35:43.568Z,3.40
2019-01-27T16:38:12.053Z,3.47
2019-01-27T16:40:40.503Z,3.90
2019-01-27T16:43:09.133Z,3.83
2019-01-27T16:45:37.593Z,6.03
2019-01-27T16:48:06.049Z,5.77
2019-01-27T16:50:34.488Z,4.70
2019-01-27T16:53:02.983Z,7.70
2019-01-27T16:55:31.434Z,7.30
2019-01-27T16:57:59.892Z,8.50
2019-01-27T17:00:31.955Z,8.23
2019-01-27T17:03:00.415Z,20.87
2019-01-27T17:05:28.947Z,43.23
2019-01-27T17:07:57.820Z,13.93
2019-01-27T17:10:28.000Z,6.80
2019-01-27T17:12:57.032Z,5.13
2019-01-27T17:15:25.573Z,6.80
2019-01-27T17:17:54.017Z,6.83
2019-01-27T17:20:26.252Z,6.60
2019-01-27T17:22:55.044Z,6.07
2019-01-27T17:25:23.560Z,6.33
2019-01-27T17:27:53.641Z,14.90
2019-01-27T17:30:23.716Z,7.70
2019-01-27T17:32:52.309Z,7.17
2019-01-27T17:35:22.790Z,5.97
2019-01-27T17:37:51.334Z,7.87
2019-01-27T17:40:20.529Z,7.27
2019-01-27T17:42:49.370Z,6.80
2019-01-27T17:45:22.986Z,6.80
2019-01-27T17:47:51.519Z,11.63
2019-01-27T17:50:21.308Z,9.50
2019-01-27T17:52:49.881Z,9.20
2019-01-27T17:55:30.439Z,8.67
2019-01-27T17:58:03.243Z,9.30
2019-01-27T18:00:36.239Z,7.80
2019-01-27T18:03:07.103Z,8.40
2019-01-27T18:05:37.237Z,8.10
2019-01-27T18:08:07.381Z,8.20
2019-01-27T18:10:37.545Z,8.57
2019-01-27T18:13:10.450Z,10.13
2019-01-27T18:15:38.920Z,8.47
2019-01-27T18:18:07.347Z,13.90
2019-01-27T18:20:35.845Z,7.90
2019-01-27T18:23:04.363Z,14.33
2019-01-27T18:25:34.491Z,7.03
2019-01-27T18:28:02.966Z,9.47
2019-01-27T18:30:31.427Z,10.23
2019-01-27T18:32:59.886Z,8.43
2019-01-27T18:35:28.517Z,15.83
2019-01-27T18:37:56.961Z,10.67
2019-01-27T18:40:25.479Z,15.07
2019-01-27T18:42:53.999Z,12.33
2019-01-27T18:45:22.557Z,14.60
2019-01-27T18:47:51.006Z,13.63
2019-01-27T18:50:19.576Z,11.50
2019-01-27T18:52:49.660Z,12.23
2019-01-27T18:55:19.751Z,16.07
2019-01-27T18:57:49.878Z,13.80
2019-01-27T19:00:22.778Z,9.33
2019-01-27T19:02:59.134Z,8.23
2019-01-27T19:05:29.235Z,8.60
2019-01-27T19:08:07.880Z,9.50
2019-01-27T19:10:43.804Z,13.73
2019-01-27T19:13:20.504Z,10.00
2019-01-27T19:16:06.749Z,18.80
2019-01-27T19:18:53.164Z,13.53
2019-01-27T19:21:39.643Z,13.13
2019-01-27T19:24:09.788Z,14.00
2019-01-27T19:26:54.926Z,16.50
2019-01-27T19:29:31.206Z,12.70
2019-01-27T19:32:04.272Z,13.70
2019-01-27T19:34:40.393Z,15.40
2019-01-27T19:37:22.816Z,10.10
2019-01-27T19:40:05.273Z,13.90
2019-01-27T19:42:44.134Z,15.43
2019-01-27T19:45:17.347Z,15.07
2019-01-27T19:47:47.460Z,11.97
2019-01-27T19:50:34.216Z,13.03
2019-01-27T19:53:07.233Z,14.83
2019-01-27T19:55:49.567Z,12.83
2019-01-27T19:58:28.320Z,17.57
2019-01-27T20:01:01.342Z,10.80
2019-01-27T20:03:31.444Z,18.13
2019-01-27T20:06:10.379Z,17.50
2019-01-27T20:08:43.220Z,16.87
2019-01-27T20:11:16.336Z,16.13
2019-01-27T20:13:52.217Z,12.27
2019-01-27T20:16:22.712Z,11.90
2019-01-27T20:19:01.452Z,10.03
2019-01-27T20:21:53.414Z,9.77
2019-01-27T20:24:19.701Z,8.90
2019-01-27T20:26:49.783Z,6.80
2019-01-27T20:29:35.204Z,10.70
2019-01-27T20:32:08.209Z,8.87
2019-01-27T20:34:44.201Z,8.70
2019-01-27T20:37:14.345Z,8.37
2019-01-27T20:39:53.568Z,8.90
2019-01-27T20:42:35.917Z,11.63
2019-01-27T20:45:11.725Z,7.10
2019-01-27T20:47:50.787Z,8.53
2019-01-27T20:50:20.883Z,7.73
2019-01-27T20:53:00.032Z,9.20
2019-01-27T20:55:30.235Z,9.73
2019-01-27T20:58:03.216Z,12.40
2019-01-27T21:00:33.309Z,7.60
2019-01-27T21:03:06.167Z,7.03
2019-01-27T21:05:42.088Z,6.87
2019-01-27T21:08:18.054Z,6.63
2019-01-27T21:11:04.616Z,13.80
2019-01-27T21:13:37.145Z,7.70
2019-01-27T21:16:07.608Z,8.03
2019-01-27T21:18:37.841Z,7.10
2019-01-27T21:21:06.491Z,8.60
2019-01-27T21:23:34.931Z,8.67
2019-01-27T21:26:03.519Z,9.67
2019-01-27T21:28:32.001Z,8.43
2019-01-27T21:31:00.440Z,7.87
2019-01-27T21:33:28.907Z,7.57
2019-01-27T21:35:57.393Z,6.97
2019-01-27T21:38:25.838Z,8.00
2019-01-27T21:40:54.276Z,8.47
2019-01-27T21:43:22.773Z,7.77
2019-01-27T21:45:51.223Z,8.00
2019-01-27T21:48:19.658Z,11.37
2019-01-27T21:50:48.128Z,8.57
2019-01-27T21:53:16.587Z,6.37
2019-01-27T21:55:45.189Z,8.03
2019-01-27T21:58:13.678Z,8.93
2019-01-27T22:00:42.140Z,8.67
2019-01-27T22:03:10.584Z,7.60
2019-01-27T22:05:39.073Z,8.33
2019-01-27T22:08:07.524Z,7.50
2019-01-27T22:10:35.981Z,7.47
2019-01-27T22:13:04.529Z,7.97
2019-01-27T22:15:32.978Z,8.17
2019-01-27T22:18:01.426Z,7.50
2019-01-27T22:20:30.184Z,7.70
2019-01-27T22:22:58.633Z,7.97
2019-01-27T22:25:27.072Z,7.27
2019-01-27T22:27:55.555Z,7.33
2019-01-27T22:30:24.060Z,9.33
2019-01-27T22:32:52.508Z,7.83
2019-01-27T22:35:21.006Z,8.00
2019-01-27T22:37:49.529Z,7.80
2019-01-27T22:40:18.052Z,8.60
2019-01-27T22:42:46.533Z,8.03
2019-01-27T22:45:16.263Z,14.30
2019-01-27T22:47:44.796Z,8.03
2019-01-27T22:50:15.913Z,10.60
2019-01-27T22:52:44.354Z,8.40
2019-01-27T22:55:13.175Z,11.70
2019-01-27T22:57:41.660Z,9.87
2019-01-27T23:00:23.774Z,8.30
2019-01-27T23:02:52.235Z,9.10
2019-01-27T23:05:20.687Z,9.43
2019-01-27T23:07:49.139Z,7.30
2019-01-27T23:10:17.786Z,9.10
2019-01-27T23:12:46.244Z,9.23
2019-01-27T23:15:14.754Z,10.90
2019-01-27T23:17:43.227Z,9.47
2019-01-27T23:20:11.735Z,8.20
2019-01-27T23:22:40.298Z,9.03
2019-01-27T23:25:08.788Z,9.73
2019-01-27T23:27:37.222Z,9.97
2019-01-27T23:30:07.923Z,10.13
2019-01-27T23:32:36.419Z,9.63
2019-01-27T23:35:06.607Z,9.13
2019-01-27T23:37:35.051Z,9.53
2019-01-27T23:40:05.051Z,12.77
2019-01-27T23:42:33.509Z,11.37
2019-01-27T23:45:01.959Z,8.97
2019-01-27T23:47:30.459Z,14.23
2019-01-27T23:49:58.921Z,10.07
2019-01-27T23:52:27.383Z,9.47
2019-01-27T23:54:55.854Z,9.17
2019-01-27T23:57:24.312Z,10.90
2019-01-27T23:59:52.763Z,8.70
